Tijucas Do Sul, Brazil
Current Conditions -  °F | °C
As of 10:00 PM on Tuesday 21 Oct 2014 (Local Time) from SBCT Reporting Station
Drizzle Drizzle  
Wind Chill: 13°   Ceiling: 600
Heat Index: 13°   Visibility: 5mi
Dew Point: 11°   Wind: 6mph
Humidity: 88%   Direction: 120°ESE
Pressure: 30.27"   Gusts: NA
Location:  25.93°S, 49.18°W
Report Text: SBCT 220000Z 12005KT 8000 -DZ FEW002 BKN006 BKN009 13/11 Q1025
Loading
Personal Weather Stations






























Interactive Weather Map
Tropical Storm Tracking
New forecast layout! Learn more

10-Day Weather Forecast

Advertisements
Track Severe Weather on mobile